sensor_id;sensor_type;location;lat;lon;timestamp;temperature;humidity
22948;DHT22;11640;52.520;13.456;2022-09-09T00:09:29;15.20;99.90
22948;DHT22;11640;52.520;13.456;2022-09-09T00:14:40;15.10;99.90
22948;DHT22;11640;52.520;13.456;2022-09-09T00:19:56;15.10;99.90
22948;DHT22;11640;52.520;13.456;2022-09-09T00:25:12;15.10;99.90
22948;DHT22;11640;52.520;13.456;2022-09-09T00:30:38;15.10;99.90
22948;DHT22;11640;52.520;13.456;2022-09-09T00:36:00;15.00;99.90
22948;DHT22;11640;52.520;13.456;2022-09-09T00:41:14;15.00;99.90
22948;DHT22;11640;52.520;13.456;2022-09-09T00:57:10;14.90;99.90
22948;DHT22;11640;52.520;13.456;2022-09-09T01:02:39;14.90;99.90
22948;DHT22;11640;52.520;13.456;2022-09-09T01:07:47;14.90;99.90
22948;DHT22;11640;52.520;13.456;2022-09-09T01:12:52;14.80;99.90
22948;DHT22;11640;52.520;13.456;2022-09-09T01:28:51;14.70;99.90
22948;DHT22;11640;52.520;13.456;2022-09-09T01:34:11;14.70;99.90
22948;DHT22;11640;52.520;13.456;2022-09-09T01:39:14;14.60;99.90
22948;DHT22;11640;52.520;13.456;2022-09-09T01:44:19;14.60;99.90
22948;DHT22;11640;52.520;13.456;2022-09-09T01:49:21;14.60;99.90
22948;DHT22;11640;52.520;13.456;2022-09-09T01:54:27;14.50;99.90
22948;DHT22;11640;52.520;13.456;2022-09-09T01:59:45;14.50;99.90
22948;DHT22;11640;52.520;13.456;2022-09-09T02:04:52;14.50;99.90
22948;DHT22;11640;52.520;13.456;2022-09-09T02:10:12;14.50;99.90
22948;DHT22;11640;52.520;13.456;2022-09-09T02:15:30;14.40;99.90
22948;DHT22;11640;52.520;13.456;2022-09-09T02:20:36;14.40;99.90
22948;DHT22;11640;52.520;13.456;2022-09-09T02:25:40;14.40;99.90
22948;DHT22;11640;52.520;13.456;2022-09-09T02:30:54;14.40;99.90
22948;DHT22;11640;52.520;13.456;2022-09-09T02:36:04;14.30;99.90
22948;DHT22;11640;52.520;13.456;2022-09-09T02:41:09;14.30;99.90
22948;DHT22;11640;52.520;13.456;2022-09-09T02:51:50;14.30;99.90
22948;DHT22;11640;52.520;13.456;2022-09-09T02:56:54;14.30;99.90
22948;DHT22;11640;52.520;13.456;2022-09-09T03:02:05;14.30;99.90
22948;DHT22;11640;52.520;13.456;2022-09-09T03:07:09;14.20;99.90
22948;DHT22;11640;52.520;13.456;2022-09-09T03:12:12;14.20;99.90
22948;DHT22;11640;52.520;13.456;2022-09-09T03:17:14;14.20;99.90
22948;DHT22;11640;52.520;13.456;2022-09-09T03:22:24;14.20;99.90
22948;DHT22;11640;52.520;13.456;2022-09-09T03:27:27;14.10;99.90
22948;DHT22;11640;52.520;13.456;2022-09-09T03:32:29;14.10;99.90
22948;DHT22;11640;52.520;13.456;2022-09-09T03:37:32;14.10;99.90
22948;DHT22;11640;52.520;13.456;2022-09-09T03:42:34;14.00;99.90
22948;DHT22;11640;52.520;13.456;2022-09-09T03:47:38;14.00;99.90
22948;DHT22;11640;52.520;13.456;2022-09-09T03:52:41;14.00;99.90
22948;DHT22;11640;52.520;13.456;2022-09-09T03:57:50;14.00;99.90
22948;DHT22;11640;52.520;13.456;2022-09-09T04:02:53;13.90;99.90
22948;DHT22;11640;52.520;13.456;2022-09-09T04:07:56;13.90;99.90
22948;DHT22;11640;52.520;13.456;2022-09-09T04:12:58;13.90;99.90
22948;DHT22;11640;52.520;13.456;2022-09-09T04:18:03;13.90;99.90
22948;DHT22;11640;52.520;13.456;2022-09-09T04:23:04;13.90;99.90
22948;DHT22;11640;52.520;13.456;2022-09-09T04:28:08;13.80;99.90
22948;DHT22;11640;52.520;13.456;2022-09-09T04:33:12;13.80;99.90
22948;DHT22;11640;52.520;13.456;2022-09-09T04:38:15;13.80;99.90
22948;DHT22;11640;52.520;13.456;2022-09-09T04:43:18;13.80;99.90
22948;DHT22;11640;52.520;13.456;2022-09-09T04:48:24;13.80;99.90
22948;DHT22;11640;52.520;13.456;2022-09-09T04:53:27;13.80;99.90
22948;DHT22;11640;52.520;13.456;2022-09-09T04:58:29;13.90;99.90
22948;DHT22;11640;52.520;13.456;2022-09-09T05:03:31;13.90;99.90
22948;DHT22;11640;52.520;13.456;2022-09-09T05:08:33;13.90;99.90
22948;DHT22;11640;52.520;13.456;2022-09-09T05:13:35;13.90;99.90
22948;DHT22;11640;52.520;13.456;2022-09-09T05:18:42;14.00;99.90
22948;DHT22;11640;52.520;13.456;2022-09-09T05:23:45;14.00;99.90
22948;DHT22;11640;52.520;13.456;2022-09-09T05:28:47;14.10;99.90
22948;DHT22;11640;52.520;13.456;2022-09-09T05:33:50;14.20;99.90
22948;DHT22;11640;52.520;13.456;2022-09-09T05:38:52;14.20;99.90
22948;DHT22;11640;52.520;13.456;2022-09-09T05:43:55;14.20;99.90
22948;DHT22;11640;52.520;13.456;2022-09-09T05:48:58;14.30;99.90
22948;DHT22;11640;52.520;13.456;2022-09-09T05:54:03;14.30;99.90
22948;DHT22;11640;52.520;13.456;2022-09-09T05:59:08;14.40;99.90
22948;DHT22;11640;52.520;13.456;2022-09-09T06:04:12;14.40;99.90
22948;DHT22;11640;52.520;13.456;2022-09-09T06:09:15;14.50;99.90
22948;DHT22;11640;52.520;13.456;2022-09-09T06:14:17;14.60;99.90
22948;DHT22;11640;52.520;13.456;2022-09-09T06:19:21;14.70;99.90
22948;DHT22;11640;52.520;13.456;2022-09-09T06:24:26;14.70;99.90
22948;DHT22;11640;52.520;13.456;2022-09-09T06:29:28;14.80;99.90
22948;DHT22;11640;52.520;13.456;2022-09-09T06:34:30;14.90;99.90
22948;DHT22;11640;52.520;13.456;2022-09-09T06:39:33;15.10;99.90
22948;DHT22;11640;52.520;13.456;2022-09-09T06:44:35;15.20;99.90
22948;DHT22;11640;52.520;13.456;2022-09-09T06:49:40;15.30;99.90
22948;DHT22;11640;52.520;13.456;2022-09-09T06:54:46;15.40;99.90
22948;DHT22;11640;52.520;13.456;2022-09-09T06:59:49;15.50;99.90
22948;DHT22;11640;52.520;13.456;2022-09-09T07:04:53;15.70;99.90
22948;DHT22;11640;52.520;13.456;2022-09-09T07:09:55;15.90;99.90
22948;DHT22;11640;52.520;13.456;2022-09-09T07:14:57;16.10;99.90
22948;DHT22;11640;52.520;13.456;2022-09-09T07:19:58;16.30;99.90
22948;DHT22;11640;52.520;13.456;2022-09-09T07:25:01;16.50;99.90
22948;DHT22;11640;52.520;13.456;2022-09-09T07:30:04;16.70;99.90
22948;DHT22;11640;52.520;13.456;2022-09-09T07:35:07;16.90;99.90
22948;DHT22;11640;52.520;13.456;2022-09-09T07:40:09;17.20;99.90
22948;DHT22;11640;52.520;13.456;2022-09-09T07:45:12;17.70;99.90
22948;DHT22;11640;52.520;13.456;2022-09-09T07:50:14;17.80;99.90
22948;DHT22;11640;52.520;13.456;2022-09-09T07:55:17;18.10;99.90
22948;DHT22;11640;52.520;13.456;2022-09-09T08:00:19;18.50;99.90
22948;DHT22;11640;52.520;13.456;2022-09-09T08:05:27;18.70;99.90
22948;DHT22;11640;52.520;13.456;2022-09-09T08:10:30;18.90;99.90
22948;DHT22;11640;52.520;13.456;2022-09-09T08:15:33;19.10;99.90
22948;DHT22;11640;52.520;13.456;2022-09-09T08:20:36;19.20;99.90
22948;DHT22;11640;52.520;13.456;2022-09-09T08:25:39;19.20;99.90
22948;DHT22;11640;52.520;13.456;2022-09-09T08:30:41;19.10;99.90
22948;DHT22;11640;52.520;13.456;2022-09-09T08:35:50;19.00;99.90
22948;DHT22;11640;52.520;13.456;2022-09-09T08:40:53;19.00;99.90
22948;DHT22;11640;52.520;13.456;2022-09-09T08:46:26;18.90;99.90
22948;DHT22;11640;52.520;13.456;2022-09-09T08:51:31;19.00;99.90
22948;DHT22;11640;52.520;13.456;2022-09-09T08:56:36;18.90;99.90
22948;DHT22;11640;52.520;13.456;2022-09-09T09:07:19;19.20;99.90
22948;DHT22;11640;52.520;13.456;2022-09-09T09:12:28;19.50;99.90
22948;DHT22;11640;52.520;13.456;2022-09-09T09:17:37;19.80;99.90
22948;DHT22;11640;52.520;13.456;2022-09-09T09:22:51;20.10;99.90
22948;DHT22;11640;52.520;13.456;2022-09-09T09:28:12;20.60;99.90
22948;DHT22;11640;52.520;13.456;2022-09-09T09:33:22;20.90;99.90
22948;DHT22;11640;52.520;13.456;2022-09-09T09:38:27;21.20;99.90
22948;DHT22;11640;52.520;13.456;2022-09-09T09:43:54;21.40;99.90
22948;DHT22;11640;52.520;13.456;2022-09-09T09:49:09;21.40;99.90
22948;DHT22;11640;52.520;13.456;2022-09-09T09:59:35;21.10;99.90
22948;DHT22;11640;52.520;13.456;2022-09-09T10:04:47;21.10;99.90
22948;DHT22;11640;52.520;13.456;2022-09-09T10:09:55;21.20;99.90
22948;DHT22;11640;52.520;13.456;2022-09-09T10:15:23;21.30;99.90
22948;DHT22;11640;52.520;13.456;2022-09-09T10:25:51;21.30;99.90
22948;DHT22;11640;52.520;13.456;2022-09-09T10:31:19;21.30;99.90
22948;DHT22;11640;52.520;13.456;2022-09-09T10:36:27;21.30;99.90
22948;DHT22;11640;52.520;13.456;2022-09-09T10:57:37;21.50;99.90
22948;DHT22;11640;52.520;13.456;2022-09-09T11:02:41;21.60;99.90
22948;DHT22;11640;52.520;13.456;2022-09-09T11:08:01;21.70;99.90
22948;DHT22;11640;52.520;13.456;2022-09-09T11:13:10;22.00;99.90
22948;DHT22;11640;52.520;13.456;2022-09-09T11:18:20;22.00;99.90
22948;DHT22;11640;52.520;13.456;2022-09-09T11:23:35;22.00;99.90
22948;DHT22;11640;52.520;13.456;2022-09-09T11:28:56;22.30;99.90
22948;DHT22;11640;52.520;13.456;2022-09-09T11:34:20;22.30;99.90
22948;DHT22;11640;52.520;13.456;2022-09-09T11:44:30;22.50;99.90
22948;DHT22;11640;52.520;13.456;2022-09-09T11:54:48;22.60;99.90
22948;DHT22;11640;52.520;13.456;2022-09-09T11:59:53;22.50;99.90
22948;DHT22;11640;52.520;13.456;2022-09-09T12:05:05;22.50;99.90
22948;DHT22;11640;52.520;13.456;2022-09-09T12:10:31;22.30;99.90
22948;DHT22;11640;52.520;13.456;2022-09-09T12:15:34;22.40;99.90
22948;DHT22;11640;52.520;13.456;2022-09-09T12:20:37;22.40;99.90
22948;DHT22;11640;52.520;13.456;2022-09-09T12:25:56;22.60;99.90
22948;DHT22;11640;52.520;13.456;2022-09-09T12:31:10;22.70;99.90
22948;DHT22;11640;52.520;13.456;2022-09-09T12:36:23;22.90;99.90
22948;DHT22;11640;52.520;13.456;2022-09-09T12:41:27;22.90;99.90
22948;DHT22;11640;52.520;13.456;2022-09-09T12:46:44;23.00;99.90
22948;DHT22;11640;52.520;13.456;2022-09-09T12:51:46;23.20;99.90
22948;DHT22;11640;52.520;13.456;2022-09-09T12:56:48;23.40;99.90
22948;DHT22;11640;52.520;13.456;2022-09-09T13:01:57;23.50;99.90
22948;DHT22;11640;52.520;13.456;2022-09-09T13:07:09;23.40;99.90
22948;DHT22;11640;52.520;13.456;2022-09-09T13:12:22;23.70;99.90
22948;DHT22;11640;52.520;13.456;2022-09-09T13:17:26;23.50;99.90
22948;DHT22;11640;52.520;13.456;2022-09-09T13:22:35;23.60;99.90
22948;DHT22;11640;52.520;13.456;2022-09-09T13:27:41;23.50;99.90
22948;DHT22;11640;52.520;13.456;2022-09-09T13:38:08;23.50;99.90
22948;DHT22;11640;52.520;13.456;2022-09-09T13:43:20;23.90;99.90
22948;DHT22;11640;52.520;13.456;2022-09-09T13:48:22;24.30;99.90
22948;DHT22;11640;52.520;13.456;2022-09-09T13:53:25;24.90;99.90
22948;DHT22;11640;52.520;13.456;2022-09-09T13:58:27;25.20;99.90
22948;DHT22;11640;52.520;13.456;2022-09-09T14:03:28;26.10;99.90
22948;DHT22;11640;52.520;13.456;2022-09-09T14:08:30;26.10;99.90
22948;DHT22;11640;52.520;13.456;2022-09-09T14:13:39;25.70;99.90
22948;DHT22;11640;52.520;13.456;2022-09-09T14:18:41;25.20;99.90
22948;DHT22;11640;52.520;13.456;2022-09-09T14:23:43;24.90;99.90
22948;DHT22;11640;52.520;13.456;2022-09-09T14:28:45;25.00;99.90
22948;DHT22;11640;52.520;13.456;2022-09-09T14:33:56;25.30;99.90
22948;DHT22;11640;52.520;13.456;2022-09-09T14:38:58;26.40;99.90
22948;DHT22;11640;52.520;13.456;2022-09-09T14:44:00;26.80;99.90
22948;DHT22;11640;52.520;13.456;2022-09-09T14:49:02;27.30;99.90
22948;DHT22;11640;52.520;13.456;2022-09-09T14:54:04;27.40;99.90
22948;DHT22;11640;52.520;13.456;2022-09-09T14:59:06;26.90;99.90
22948;DHT22;11640;52.520;13.456;2022-09-09T15:04:11;26.40;99.90
22948;DHT22;11640;52.520;13.456;2022-09-09T15:09:14;25.70;99.90
22948;DHT22;11640;52.520;13.456;2022-09-09T15:14:16;25.10;99.90
22948;DHT22;11640;52.520;13.456;2022-09-09T15:19:25;24.80;99.90
22948;DHT22;11640;52.520;13.456;2022-09-09T15:24:27;24.80;99.90
22948;DHT22;11640;52.520;13.456;2022-09-09T15:29:29;24.70;99.90
22948;DHT22;11640;52.520;13.456;2022-09-09T15:34:30;24.60;99.90
22948;DHT22;11640;52.520;13.456;2022-09-09T15:39:32;24.60;99.90
22948;DHT22;11640;52.520;13.456;2022-09-09T15:44:40;24.30;99.90
22948;DHT22;11640;52.520;13.456;2022-09-09T15:49:43;24.10;99.90
22948;DHT22;11640;52.520;13.456;2022-09-09T15:54:45;23.80;99.90
22948;DHT22;11640;52.520;13.456;2022-09-09T15:59:47;23.60;99.90
22948;DHT22;11640;52.520;13.456;2022-09-09T16:04:49;23.50;99.90
22948;DHT22;11640;52.520;13.456;2022-09-09T16:09:51;23.30;99.90
22948;DHT22;11640;52.520;13.456;2022-09-09T16:14:54;23.20;99.90
22948;DHT22;11640;52.520;13.456;2022-09-09T16:19:56;23.20;99.90
22948;DHT22;11640;52.520;13.456;2022-09-09T16:24:59;23.10;99.90
22948;DHT22;11640;52.520;13.456;2022-09-09T16:30:01;23.10;99.90
22948;DHT22;11640;52.520;13.456;2022-09-09T16:35:03;23.10;99.90
22948;DHT22;11640;52.520;13.456;2022-09-09T16:40:05;22.90;99.90
22948;DHT22;11640;52.520;13.456;2022-09-09T16:45:07;22.80;99.90
22948;DHT22;11640;52.520;13.456;2022-09-09T16:50:09;22.70;99.90
22948;DHT22;11640;52.520;13.456;2022-09-09T16:55:11;22.50;99.90
22948;DHT22;11640;52.520;13.456;2022-09-09T17:00:13;22.40;99.90
22948;DHT22;11640;52.520;13.456;2022-09-09T17:05:15;22.10;99.90
22948;DHT22;11640;52.520;13.456;2022-09-09T17:10:17;22.00;99.90
22948;DHT22;11640;52.520;13.456;2022-09-09T17:15:18;21.80;99.90
22948;DHT22;11640;52.520;13.456;2022-09-09T17:20:20;21.60;99.90
22948;DHT22;11640;52.520;13.456;2022-09-09T17:25:23;21.30;99.90
22948;DHT22;11640;52.520;13.456;2022-09-09T17:30:26;21.10;99.90
22948;DHT22;11640;52.520;13.456;2022-09-09T17:35:30;20.80;99.90
22948;DHT22;11640;52.520;13.456;2022-09-09T17:40:31;20.70;99.90
22948;DHT22;11640;52.520;13.456;2022-09-09T17:45:33;20.50;99.90
22948;DHT22;11640;52.520;13.456;2022-09-09T17:50:35;20.20;99.90
22948;DHT22;11640;52.520;13.456;2022-09-09T17:55:38;20.00;99.90
22948;DHT22;11640;52.520;13.456;2022-09-09T18:00:40;19.80;99.90
22948;DHT22;11640;52.520;13.456;2022-09-09T18:05:42;19.60;99.90
22948;DHT22;11640;52.520;13.456;2022-09-09T18:10:52;19.40;99.90
22948;DHT22;11640;52.520;13.456;2022-09-09T18:15:56;19.20;99.90
22948;DHT22;11640;52.520;13.456;2022-09-09T18:21:07;19.10;99.90
22948;DHT22;11640;52.520;13.456;2022-09-09T18:26:11;18.90;99.90
22948;DHT22;11640;52.520;13.456;2022-09-09T18:31:15;18.70;99.90
22948;DHT22;11640;52.520;13.456;2022-09-09T18:36:20;18.60;99.90
22948;DHT22;11640;52.520;13.456;2022-09-09T18:41:33;18.40;99.90
22948;DHT22;11640;52.520;13.456;2022-09-09T18:46:36;18.20;99.90
22948;DHT22;11640;52.520;13.456;2022-09-09T18:51:39;18.10;99.90
22948;DHT22;11640;52.520;13.456;2022-09-09T18:56:42;18.00;99.90
22948;DHT22;11640;52.520;13.456;2022-09-09T19:01:45;17.90;99.90
22948;DHT22;11640;52.520;13.456;2022-09-09T19:06:48;17.80;99.90
22948;DHT22;11640;52.520;13.456;2022-09-09T19:11:50;17.70;99.90
22948;DHT22;11640;52.520;13.456;2022-09-09T19:16:52;17.70;99.90
22948;DHT22;11640;52.520;13.456;2022-09-09T19:21:54;17.60;99.90
22948;DHT22;11640;52.520;13.456;2022-09-09T19:27:05;17.60;99.90
22948;DHT22;11640;52.520;13.456;2022-09-09T19:32:07;17.50;99.90
22948;DHT22;11640;52.520;13.456;2022-09-09T19:37:31;17.40;99.90
22948;DHT22;11640;52.520;13.456;2022-09-09T19:42:33;17.30;99.90
22948;DHT22;11640;52.520;13.456;2022-09-09T19:47:35;17.30;99.90
22948;DHT22;11640;52.520;13.456;2022-09-09T19:52:37;17.20;99.90
22948;DHT22;11640;52.520;13.456;2022-09-09T19:57:39;17.10;99.90
22948;DHT22;11640;52.520;13.456;2022-09-09T20:02:41;17.00;99.90
22948;DHT22;11640;52.520;13.456;2022-09-09T20:08:04;17.00;99.90
22948;DHT22;11640;52.520;13.456;2022-09-09T20:13:06;16.90;99.90
22948;DHT22;11640;52.520;13.456;2022-09-09T20:18:08;16.90;99.90
22948;DHT22;11640;52.520;13.456;2022-09-09T20:23:10;16.80;99.90
22948;DHT22;11640;52.520;13.456;2022-09-09T20:28:11;16.80;99.90
22948;DHT22;11640;52.520;13.456;2022-09-09T20:33:13;16.70;99.90
22948;DHT22;11640;52.520;13.456;2022-09-09T20:38:16;16.70;99.90
22948;DHT22;11640;52.520;13.456;2022-09-09T20:43:17;16.60;99.90
22948;DHT22;11640;52.520;13.456;2022-09-09T20:48:19;16.60;99.90
22948;DHT22;11640;52.520;13.456;2022-09-09T20:53:21;16.60;99.90
22948;DHT22;11640;52.520;13.456;2022-09-09T20:58:23;16.50;99.90
22948;DHT22;11640;52.520;13.456;2022-09-09T21:03:30;16.40;99.90
22948;DHT22;11640;52.520;13.456;2022-09-09T21:08:34;16.40;99.90
22948;DHT22;11640;52.520;13.456;2022-09-09T21:13:37;16.40;99.90
22948;DHT22;11640;52.520;13.456;2022-09-09T21:18:40;16.30;99.90
22948;DHT22;11640;52.520;13.456;2022-09-09T21:23:42;16.30;99.90
22948;DHT22;11640;52.520;13.456;2022-09-09T21:28:44;16.20;99.90
22948;DHT22;11640;52.520;13.456;2022-09-09T21:33:46;16.20;99.90
22948;DHT22;11640;52.520;13.456;2022-09-09T21:38:48;16.10;99.90
22948;DHT22;11640;52.520;13.456;2022-09-09T21:43:51;16.10;99.90
22948;DHT22;11640;52.520;13.456;2022-09-09T21:48:54;16.00;99.90
22948;DHT22;11640;52.520;13.456;2022-09-09T21:53:57;16.00;99.90
22948;DHT22;11640;52.520;13.456;2022-09-09T21:58:59;16.00;99.90
22948;DHT22;11640;52.520;13.456;2022-09-09T22:04:04;15.90;99.90
22948;DHT22;11640;52.520;13.456;2022-09-09T22:09:06;15.80;99.90
22948;DHT22;11640;52.520;13.456;2022-09-09T22:14:07;15.80;99.90
22948;DHT22;11640;52.520;13.456;2022-09-09T22:19:09;15.80;99.90
22948;DHT22;11640;52.520;13.456;2022-09-09T22:24:12;15.70;99.90
22948;DHT22;11640;52.520;13.456;2022-09-09T22:29:14;15.70;99.90
22948;DHT22;11640;52.520;13.456;2022-09-09T22:34:16;15.70;99.90
22948;DHT22;11640;52.520;13.456;2022-09-09T22:39:18;15.70;99.90
22948;DHT22;11640;52.520;13.456;2022-09-09T22:44:22;15.60;99.90
22948;DHT22;11640;52.520;13.456;2022-09-09T22:49:25;15.60;99.90
22948;DHT22;11640;52.520;13.456;2022-09-09T22:54:27;15.60;99.90
22948;DHT22;11640;52.520;13.456;2022-09-09T22:59:29;15.60;99.90
22948;DHT22;11640;52.520;13.456;2022-09-09T23:04:31;15.50;99.90
22948;DHT22;11640;52.520;13.456;2022-09-09T23:09:33;15.50;99.90
22948;DHT22;11640;52.520;13.456;2022-09-09T23:14:35;15.50;99.90
22948;DHT22;11640;52.520;13.456;2022-09-09T23:19:37;15.40;99.90
22948;DHT22;11640;52.520;13.456;2022-09-09T23:24:39;15.40;99.90
22948;DHT22;11640;52.520;13.456;2022-09-09T23:29:41;15.40;99.90
22948;DHT22;11640;52.520;13.456;2022-09-09T23:34:43;15.40;99.90
22948;DHT22;11640;52.520;13.456;2022-09-09T23:39:47;15.40;99.90
22948;DHT22;11640;52.520;13.456;2022-09-09T23:44:48;15.40;99.90
22948;DHT22;11640;52.520;13.456;2022-09-09T23:49:51;15.40;99.90
22948;DHT22;11640;52.520;13.456;2022-09-09T23:54:54;15.30;99.90
22948;DHT22;11640;52.520;13.456;2022-09-09T23:59:57;15.30;99.90
